Time;durP1;ratioP1;P1;durP2;ratioP2;P2;SDS_P1;SDS_P2;PMS_P1;PMS_P2;Temp;Humidity;BMP_temperature;BMP_pressure;BME280_temperature;BME280_humidity;BME280_pressure;Samples;Min_cycle;Max_cycle;Signal;HPM_P1;HPM_P2
2024/01/30 00:00:40;;;;;;;1.90;1.30;;;;;;;;;;5080072;28;20025;-79
2024/01/30 00:03:07;;;;;;;1.95;1.45;;;;;;;;;;5088564;28;20033;-78
2024/01/30 00:05:33;;;;;;;2.60;1.30;;;;;;;;;;5084872;28;20033;-77
2024/01/30 00:07:59;;;;;;;1.92;1.25;;;;;;;;;;5076087;28;20476;-77
2024/01/30 00:10:25;;;;;;;1.45;1.33;;;;;;;;;;5076043;28;20026;-77
2024/01/30 00:12:51;;;;;;;2.13;1.30;;;;;;;;;;5072766;28;20088;-77
2024/01/30 00:15:18;;;;;;;2.95;1.60;;;;;;;;;;5071975;28;20100;-78
2024/01/30 00:17:44;;;;;;;2.72;1.42;;;;;;;;;;5076880;28;20017;-79
2024/01/30 00:20:10;;;;;;;2.58;1.73;;;;;;;;;;5074267;28;20085;-78
2024/01/30 00:22:36;;;;;;;2.03;1.10;;;;;;;;;;5075350;28;20028;-78
2024/01/30 00:25:02;;;;;;;2.00;1.45;;;;;;;;;;5072908;28;20107;-78
2024/01/30 00:27:28;;;;;;;1.90;1.20;;;;;;;;;;5074733;28;20028;-78
2024/01/30 00:29:54;;;;;;;2.63;1.48;;;;;;;;;;5065913;28;20021;-79
2024/01/30 00:32:21;;;;;;;2.13;1.20;;;;;;;;;;5065531;28;20039;-78
2024/01/30 00:34:47;;;;;;;1.33;1.10;;;;;;;;;;5073267;28;20028;-78
2024/01/30 00:37:13;;;;;;;3.25;1.55;;;;;;;;;;5073991;28;20016;-78
2024/01/30 00:39:39;;;;;;;2.35;1.42;;;;;;;;;;5079125;28;20517;-78
2024/01/30 00:42:05;;;;;;;1.85;1.60;;;;;;;;;;5069344;28;20028;-77
2024/01/30 00:44:32;;;;;;;1.63;1.30;;;;;;;;;;5075844;28;20037;-78
2024/01/30 00:46:59;;;;;;;1.88;1.42;;;;;;;;;;5066241;28;20016;-76
2024/01/30 00:49:25;;;;;;;1.67;1.27;;;;;;;;;;5074399;28;20023;-76
2024/01/30 00:51:51;;;;;;;2.65;1.60;;;;;;;;;;5074040;28;20028;-77
2024/01/30 00:54:17;;;;;;;1.70;1.15;;;;;;;;;;5073475;28;20380;-76
2024/01/30 00:56:43;;;;;;;1.70;1.20;;;;;;;;;;5068593;28;20080;-77
2024/01/30 00:59:09;;;;;;;2.35;1.33;;;;;;;;;;5074430;28;20111;-77
2024/01/30 01:01:36;;;;;;;1.85;1.17;;;;;;;;;;5074905;28;20060;-77
2024/01/30 01:04:02;;;;;;;2.08;1.40;;;;;;;;;;5073784;28;20023;-77
2024/01/30 01:06:28;;;;;;;1.67;1.02;;;;;;;;;;5071959;28;20033;-77
2024/01/30 01:08:54;;;;;;;1.42;1.15;;;;;;;;;;5073983;28;20025;-77
2024/01/30 01:11:20;;;;;;;1.42;1.23;;;;;;;;;;5069713;28;20039;-76
2024/01/30 01:13:46;;;;;;;1.98;1.13;;;;;;;;;;5075442;28;20075;-76
2024/01/30 01:16:12;;;;;;;2.47;1.40;;;;;;;;;;5073877;28;20029;-78
2024/01/30 01:18:38;;;;;;;3.50;1.75;;;;;;;;;;5075322;28;20364;-76
2024/01/30 01:21:05;;;;;;;3.45;1.50;;;;;;;;;;5075124;28;20024;-76
2024/01/30 01:23:31;;;;;;;1.50;1.40;;;;;;;;;;5074229;28;20028;-77
2024/01/30 01:25:59;;;;;;;2.67;1.52;;;;;;;;;;5073910;28;20028;-77
2024/01/30 01:28:25;;;;;;;2.50;1.50;;;;;;;;;;5080144;28;20086;-77
2024/01/30 01:30:51;;;;;;;2.72;1.38;;;;;;;;;;5080187;27;20025;-76
2024/01/30 01:33:18;;;;;;;2.38;1.40;;;;;;;;;;5073241;28;20475;-77
2024/01/30 01:35:44;;;;;;;1.35;1.10;;;;;;;;;;5073078;28;20033;-76
2024/01/30 01:38:10;;;;;;;2.20;1.60;;;;;;;;;;5073908;28;20072;-77
2024/01/30 01:40:36;;;;;;;1.92;1.30;;;;;;;;;;5064823;28;20506;-77
2024/01/30 01:43:05;;;;;;;2.97;1.50;;;;;;;;;;5075415;28;20040;-77
2024/01/30 01:45:31;;;;;;;2.22;1.63;;;;;;;;;;5072570;28;20044;-77
2024/01/30 01:47:57;;;;;;;2.35;1.30;;;;;;;;;;5071494;28;20024;-76
2024/01/30 01:50:23;;;;;;;2.65;1.60;;;;;;;;;;5073227;28;20063;-76
2024/01/30 01:52:50;;;;;;;1.88;1.38;;;;;;;;;;5073176;28;20021;-77
2024/01/30 01:55:21;;;;;;;3.20;1.27;;;;;;;;;;5068026;28;20424;-77
2024/01/30 01:57:48;;;;;;;4.15;1.83;;;;;;;;;;5070386;28;20025;-76
2024/01/30 02:00:15;;;;;;;3.53;1.65;;;;;;;;;;5073713;28;20104;-76
2024/01/30 02:02:41;;;;;;;3.42;1.92;;;;;;;;;;5073322;28;20037;-77
2024/01/30 02:05:09;;;;;;;4.13;1.73;;;;;;;;;;5073465;28;20073;-76
2024/01/30 02:07:35;;;;;;;2.70;1.52;;;;;;;;;;5072166;28;20102;-77
2024/01/30 02:10:01;;;;;;;2.60;1.50;;;;;;;;;;5071803;28;20037;-76
2024/01/30 02:12:27;;;;;;;2.45;1.65;;;;;;;;;;5076868;28;20024;-77
2024/01/30 02:14:55;;;;;;;2.80;1.85;;;;;;;;;;5082178;28;20024;-78
2024/01/30 02:17:23;;;;;;;3.30;1.70;;;;;;;;;;5075316;28;20013;-78
2024/01/30 02:19:49;;;;;;;3.80;1.98;;;;;;;;;;5072099;28;20484;-77
2024/01/30 02:22:15;;;;;;;2.45;1.50;;;;;;;;;;5071210;28;20479;-76
2024/01/30 02:24:41;;;;;;;2.30;1.75;;;;;;;;;;5073084;28;20036;-76
2024/01/30 02:27:07;;;;;;;2.03;1.40;;;;;;;;;;5071580;28;20024;-77
2024/01/30 02:29:33;;;;;;;4.00;1.88;;;;;;;;;;5066866;28;20036;-75
2024/01/30 02:31:59;;;;;;;1.75;1.38;;;;;;;;;;5073349;28;20028;-77
2024/01/30 02:34:25;;;;;;;4.40;1.85;;;;;;;;;;5073348;28;20124;-77
2024/01/30 02:36:51;;;;;;;2.88;1.70;;;;;;;;;;5065009;28;20385;-77
2024/01/30 02:39:17;;;;;;;3.05;1.80;;;;;;;;;;5073798;28;20013;-77
2024/01/30 02:41:43;;;;;;;1.83;1.42;;;;;;;;;;5075234;28;20028;-76
2024/01/30 02:44:10;;;;;;;2.15;1.40;;;;;;;;;;5076324;28;20040;-78
2024/01/30 02:46:36;;;;;;;2.72;1.63;;;;;;;;;;5085908;28;20074;-78
2024/01/30 02:49:02;;;;;;;3.03;1.25;;;;;;;;;;5090252;28;20020;-77
2024/01/30 02:51:29;;;;;;;1.65;1.40;;;;;;;;;;5087261;28;20022;-77
2024/01/30 02:53:55;;;;;;;2.10;1.33;;;;;;;;;;5086382;28;20029;-77
2024/01/30 02:56:21;;;;;;;2.17;1.30;;;;;;;;;;5081651;28;20039;-77
2024/01/30 02:58:47;;;;;;;2.50;1.45;;;;;;;;;;5080184;28;20096;-76
2024/01/30 03:01:13;;;;;;;3.35;1.45;;;;;;;;;;5068474;28;20028;-75
2024/01/30 03:03:40;;;;;;;1.83;1.30;;;;;;;;;;5077832;28;20032;-77
2024/01/30 03:06:07;;;;;;;2.53;1.25;;;;;;;;;;5077368;28;20031;-76
2024/01/30 03:08:35;;;;;;;2.97;1.70;;;;;;;;;;5077103;28;20020;-77
2024/01/30 03:11:01;;;;;;;3.50;1.40;;;;;;;;;;5063299;28;20123;-77
2024/01/30 03:13:27;;;;;;;2.63;1.70;;;;;;;;;;5079997;28;20028;-76
2024/01/30 03:15:53;;;;;;;2.20;1.40;;;;;;;;;;5068469;28;20025;-77
2024/01/30 03:18:20;;;;;;;1.27;1.08;;;;;;;;;;5075758;28;20024;-77
2024/01/30 03:20:46;;;;;;;1.83;1.58;;;;;;;;;;5075012;28;20025;-77
2024/01/30 03:23:12;;;;;;;2.58;1.48;;;;;;;;;;5076720;28;20499;-77
2024/01/30 03:25:38;;;;;;;1.58;1.10;;;;;;;;;;5076458;28;20031;-77
2024/01/30 03:28:04;;;;;;;1.83;1.35;;;;;;;;;;5075517;28;20028;-79
2024/01/30 03:30:30;;;;;;;1.77;1.30;;;;;;;;;;5076280;28;20112;-77
2024/01/30 03:32:56;;;;;;;2.13;1.35;;;;;;;;;;5076487;28;20078;-76
2024/01/30 03:35:22;;;;;;;1.65;1.10;;;;;;;;;;5077472;28;20491;-78
2024/01/30 03:37:49;;;;;;;1.63;1.00;;;;;;;;;;5077350;28;20031;-78
2024/01/30 03:40:15;;;;;;;1.67;1.02;;;;;;;;;;5075809;28;20025;-77
2024/01/30 03:42:41;;;;;;;1.63;1.33;;;;;;;;;;5088318;28;20039;-77
2024/01/30 03:45:07;;;;;;;1.80;1.13;;;;;;;;;;5088123;28;20447;-76
2024/01/30 03:47:33;;;;;;;1.52;1.10;;;;;;;;;;5071782;28;20031;-77
2024/01/30 03:49:59;;;;;;;3.08;1.35;;;;;;;;;;5070482;28;20110;-76
2024/01/30 03:52:26;;;;;;;1.50;1.10;;;;;;;;;;5092133;27;20044;-78
2024/01/30 03:54:52;;;;;;;1.48;1.20;;;;;;;;;;5081101;28;20035;-75
2024/01/30 03:57:18;;;;;;;3.78;1.33;;;;;;;;;;5080400;28;20081;-75
2024/01/30 03:59:44;;;;;;;2.50;1.20;;;;;;;;;;5079165;28;20036;-76
2024/01/30 04:02:13;;;;;;;4.20;1.30;;;;;;;;;;5078673;28;20024;-76
2024/01/30 04:04:39;;;;;;;2.17;1.50;;;;;;;;;;5076277;28;20052;-77
2024/01/30 04:07:05;;;;;;;1.95;1.27;;;;;;;;;;5077263;28;20020;-77
2024/01/30 04:09:32;;;;;;;2.17;0.98;;;;;;;;;;5077427;28;20402;-77
2024/01/30 04:11:58;;;;;;;2.15;1.70;;;;;;;;;;5091032;28;20026;-79
2024/01/30 04:14:24;;;;;;;2.38;1.23;;;;;;;;;;5103950;28;20090;-80
2024/01/30 04:16:50;;;;;;;2.15;1.35;;;;;;;;;;5098087;28;20062;-79
2024/01/30 04:19:17;;;;;;;1.73;1.25;;;;;;;;;;5098382;28;20019;-79
2024/01/30 04:21:43;;;;;;;2.70;1.15;;;;;;;;;;5088168;28;20037;-79
2024/01/30 04:24:09;;;;;;;1.45;1.10;;;;;;;;;;5081090;28;20052;-78
2024/01/30 04:26:36;;;;;;;3.30;1.45;;;;;;;;;;5081771;28;20023;-78
2024/01/30 04:29:02;;;;;;;2.35;1.73;;;;;;;;;;5088875;28;20016;-79
2024/01/30 04:31:28;;;;;;;1.98;1.27;;;;;;;;;;5080555;28;20101;-78
2024/01/30 04:33:54;;;;;;;1.75;1.00;;;;;;;;;;5077834;28;20397;-79
2024/01/30 04:36:21;;;;;;;1.85;0.90;;;;;;;;;;5086909;28;20024;-79
2024/01/30 04:38:47;;;;;;;1.48;0.82;;;;;;;;;;5078267;28;20028;-80
2024/01/30 04:41:13;;;;;;;1.73;1.15;;;;;;;;;;5071009;28;20028;-80
2024/01/30 04:43:39;;;;;;;1.10;1.00;;;;;;;;;;5075921;28;20056;-79
2024/01/30 04:46:08;;;;;;;2.03;1.20;;;;;;;;;;5074519;28;20024;-77
2024/01/30 04:48:34;;;;;;;1.10;0.95;;;;;;;;;;5074116;28;20139;-79
2024/01/30 04:51:02;;;;;;;1.45;0.90;;;;;;;;;;5077757;28;20042;-79
2024/01/30 04:53:30;;;;;;;1.67;1.05;;;;;;;;;;5080565;28;20028;-78
2024/01/30 04:55:56;;;;;;;1.10;0.90;;;;;;;;;;5078094;28;20040;-79
2024/01/30 04:58:22;;;;;;;2.15;1.02;;;;;;;;;;5076670;28;20024;-78
2024/01/30 05:00:51;;;;;;;1.45;0.90;;;;;;;;;;5076950;28;20459;-79
2024/01/30 05:03:17;;;;;;;1.65;0.90;;;;;;;;;;5068017;28;20020;-78
2024/01/30 05:05:44;;;;;;;1.98;1.42;;;;;;;;;;5079119;28;20028;-78
2024/01/30 05:08:10;;;;;;;1.85;1.23;;;;;;;;;;5068972;28;20029;-78
2024/01/30 05:10:36;;;;;;;2.22;1.33;;;;;;;;;;5071700;28;20491;-77
2024/01/30 05:13:02;;;;;;;2.00;1.45;;;;;;;;;;5087981;28;20712;-79
2024/01/30 05:15:28;;;;;;;1.45;0.93;;;;;;;;;;5087986;28;20024;-78
2024/01/30 05:17:55;;;;;;;1.50;1.10;;;;;;;;;;5074969;28;20024;-78
2024/01/30 05:20:21;;;;;;;1.02;0.73;;;;;;;;;;5068185;28;20020;-77
2024/01/30 05:22:47;;;;;;;1.38;0.90;;;;;;;;;;5056763;28;20036;-78
2024/01/30 05:25:13;;;;;;;1.45;0.98;;;;;;;;;;5058636;28;20471;-79
2024/01/30 05:27:40;;;;;;;1.52;1.00;;;;;;;;;;5064849;28;20052;-76
2024/01/30 05:30:09;;;;;;;1.65;0.90;;;;;;;;;;5067139;28;20074;-77
2024/01/30 05:32:35;;;;;;;1.08;0.90;;;;;;;;;;5074737;28;20131;-78
2024/01/30 05:35:01;;;;;;;1.10;0.90;;;;;;;;;;5075579;28;20025;-78
2024/01/30 05:37:27;;;;;;;0.90;0.77;;;;;;;;;;5071496;28;20028;-78
2024/01/30 05:39:53;;;;;;;0.82;0.70;;;;;;;;;;5080992;28;20029;-77
2024/01/30 05:42:19;;;;;;;1.00;0.90;;;;;;;;;;5080420;28;20095;-77
2024/01/30 05:44:45;;;;;;;0.88;0.68;;;;;;;;;;5100016;28;20043;-77
2024/01/30 05:47:11;;;;;;;1.50;0.60;;;;;;;;;;5082749;28;20020;-78
2024/01/30 05:49:38;;;;;;;1.40;0.77;;;;;;;;;;5083005;28;20028;-77
2024/01/30 05:52:05;;;;;;;1.55;0.93;;;;;;;;;;5087774;28;20028;-77
2024/01/30 05:54:31;;;;;;;0.73;0.65;;;;;;;;;;5083653;28;20039;-77
2024/01/30 05:56:57;;;;;;;0.63;0.52;;;;;;;;;;5086324;28;20020;-77
2024/01/30 05:59:23;;;;;;;1.65;0.80;;;;;;;;;;5075316;28;20028;-77
2024/01/30 06:01:49;;;;;;;0.60;0.60;;;;;;;;;;5075429;28;20055;-77
2024/01/30 06:04:15;;;;;;;1.33;0.88;;;;;;;;;;5086050;28;20058;-77
2024/01/30 06:06:42;;;;;;;1.23;0.80;;;;;;;;;;5076170;28;20044;-78
2024/01/30 06:09:09;;;;;;;0.63;0.63;;;;;;;;;;5073031;28;20020;-76
2024/01/30 06:11:35;;;;;;;0.40;0.40;;;;;;;;;;5075621;28;20105;-78
2024/01/30 06:14:01;;;;;;;0.70;0.60;;;;;;;;;;5089282;28;20027;-76
2024/01/30 06:16:29;;;;;;;0.95;0.70;;;;;;;;;;5073634;28;20037;-78
2024/01/30 06:18:55;;;;;;;1.00;0.70;;;;;;;;;;5072864;28;20480;-77
2024/01/30 06:21:22;;;;;;;1.20;0.75;;;;;;;;;;5072299;28;20032;-77
2024/01/30 06:23:48;;;;;;;1.25;0.90;;;;;;;;;;5073203;28;20025;-76
2024/01/30 06:26:14;;;;;;;1.27;0.60;;;;;;;;;;5073802;28;20032;-77
2024/01/30 06:28:40;;;;;;;0.73;0.73;;;;;;;;;;5073363;28;20445;-77
2024/01/30 06:31:06;;;;;;;1.15;0.80;;;;;;;;;;5076028;28;20044;-77
2024/01/30 06:33:32;;;;;;;0.90;0.70;;;;;;;;;;5078542;28;20110;-78
2024/01/30 06:35:58;;;;;;;1.65;1.00;;;;;;;;;;5084298;28;20028;-78
2024/01/30 06:38:25;;;;;;;1.40;0.77;;;;;;;;;;5087599;28;20047;-77
2024/01/30 06:40:51;;;;;;;0.80;0.60;;;;;;;;;;5079724;28;20024;-78
2024/01/30 06:43:18;;;;;;;0.90;0.65;;;;;;;;;;5094034;28;20371;-77
2024/01/30 06:45:44;;;;;;;1.05;0.95;;;;;;;;;;5075444;28;20069;-77
2024/01/30 06:48:10;;;;;;;1.70;0.85;;;;;;;;;;5086537;28;20024;-77
2024/01/30 06:50:36;;;;;;;0.88;0.70;;;;;;;;;;5085507;28;20036;-78
2024/01/30 06:53:02;;;;;;;0.95;0.75;;;;;;;;;;5085819;28;20031;-78
2024/01/30 06:55:28;;;;;;;1.27;0.90;;;;;;;;;;5084662;28;20588;-77
2024/01/30 06:57:54;;;;;;;1.23;0.70;;;;;;;;;;5090709;28;20061;-77
2024/01/30 07:00:21;;;;;;;0.90;0.68;;;;;;;;;;5076320;28;20419;-77
2024/01/30 07:02:47;;;;;;;1.13;0.50;;;;;;;;;;5075159;28;20106;-77
2024/01/30 07:05:14;;;;;;;1.40;0.80;;;;;;;;;;5077467;28;20036;-79
2024/01/30 07:07:40;;;;;;;1.17;0.73;;;;;;;;;;5075281;28;20029;-77
2024/01/30 07:10:06;;;;;;;1.52;1.00;;;;;;;;;;5078603;28;20029;-78
2024/01/30 07:12:32;;;;;;;2.30;1.00;;;;;;;;;;5087893;28;20039;-78
2024/01/30 07:14:59;;;;;;;1.10;1.00;;;;;;;;;;5070376;28;20028;-78
2024/01/30 07:17:25;;;;;;;1.02;0.80;;;;;;;;;;5076063;28;20423;-77
2024/01/30 07:19:51;;;;;;;1.20;0.70;;;;;;;;;;5076536;28;20036;-77
2024/01/30 07:22:17;;;;;;;1.80;1.02;;;;;;;;;;5077286;28;20029;-77
2024/01/30 07:24:46;;;;;;;1.15;0.95;;;;;;;;;;5076834;28;20029;-77
2024/01/30 07:27:13;;;;;;;1.48;1.08;;;;;;;;;;5077042;28;20082;-77
2024/01/30 07:29:39;;;;;;;1.38;1.05;;;;;;;;;;5070440;28;20044;-77
2024/01/30 07:32:05;;;;;;;1.38;0.90;;;;;;;;;;5078151;28;20016;-78
2024/01/30 07:34:31;;;;;;;0.70;0.70;;;;;;;;;;5076772;28;20036;-77
2024/01/30 07:36:57;;;;;;;1.65;0.80;;;;;;;;;;5077596;28;20019;-77
2024/01/30 07:39:23;;;;;;;0.70;0.70;;;;;;;;;;5076911;28;20013;-77
2024/01/30 07:41:49;;;;;;;1.30;0.90;;;;;;;;;;5080111;28;20031;-77
2024/01/30 07:44:16;;;;;;;1.15;1.05;;;;;;;;;;5090648;28;20028;-77
2024/01/30 07:46:42;;;;;;;3.05;0.90;;;;;;;;;;5076204;28;20073;-78
2024/01/30 07:49:08;;;;;;;1.27;0.73;;;;;;;;;;5085187;28;20031;-77
2024/01/30 07:51:34;;;;;;;2.08;1.25;;;;;;;;;;5084981;28;20059;-78
2024/01/30 07:54:00;;;;;;;1.38;0.80;;;;;;;;;;5074951;28;20028;-78
2024/01/30 07:56:26;;;;;;;1.30;0.80;;;;;;;;;;5071041;28;20391;-77
2024/01/30 07:58:53;;;;;;;1.33;0.98;;;;;;;;;;5076882;28;20016;-77
2024/01/30 08:01:19;;;;;;;1.10;1.00;;;;;;;;;;5075649;28;20086;-78
2024/01/30 08:03:45;;;;;;;1.05;0.90;;;;;;;;;;5076226;28;20392;-78
2024/01/30 08:06:11;;;;;;;0.95;0.70;;;;;;;;;;5075725;28;20028;-77
2024/01/30 08:08:37;;;;;;;0.75;0.73;;;;;;;;;;5077934;28;20040;-77
2024/01/30 08:11:04;;;;;;;2.20;0.95;;;;;;;;;;5077205;28;20039;-77
2024/01/30 08:13:30;;;;;;;0.98;0.73;;;;;;;;;;5078363;28;20082;-79
2024/01/30 08:15:56;;;;;;;0.80;0.60;;;;;;;;;;5075896;28;20103;-78
2024/01/30 08:18:22;;;;;;;0.68;0.68;;;;;;;;;;5076480;28;20013;-78
2024/01/30 08:20:49;;;;;;;0.73;0.60;;;;;;;;;;5074797;28;20027;-77
2024/01/30 08:23:15;;;;;;;0.55;0.55;;;;;;;;;;5075490;28;20042;-77
2024/01/30 08:25:41;;;;;;;1.00;0.90;;;;;;;;;;5074363;28;20032;-77
2024/01/30 08:28:07;;;;;;;0.82;0.60;;;;;;;;;;5076677;28;20108;-77
2024/01/30 08:30:34;;;;;;;1.33;0.73;;;;;;;;;;5078044;28;20029;-76
2024/01/30 08:33:00;;;;;;;0.93;0.85;;;;;;;;;;5074478;28;20058;-77
2024/01/30 08:35:26;;;;;;;1.02;0.73;;;;;;;;;;5069590;28;20021;-77
2024/01/30 08:37:52;;;;;;;1.00;0.75;;;;;;;;;;5073861;28;20449;-79
2024/01/30 08:40:18;;;;;;;0.60;0.60;;;;;;;;;;5068145;28;20195;-77
2024/01/30 08:42:44;;;;;;;1.05;0.82;;;;;;;;;;5079702;28;20506;-78
2024/01/30 08:45:10;;;;;;;0.50;0.50;;;;;;;;;;5077607;28;20130;-77
2024/01/30 08:47:36;;;;;;;0.63;0.63;;;;;;;;;;5077505;28;20028;-79
2024/01/30 08:50:03;;;;;;;0.65;0.55;;;;;;;;;;5077891;28;20031;-78
2024/01/30 08:52:29;;;;;;;0.77;0.57;;;;;;;;;;5071052;28;20537;-78
2024/01/30 08:54:55;;;;;;;0.40;0.40;;;;;;;;;;5066494;28;20029;-77
2024/01/30 08:57:21;;;;;;;1.23;0.60;;;;;;;;;;5076131;28;20027;-78
2024/01/30 08:59:47;;;;;;;0.65;0.50;;;;;;;;;;5081067;28;20108;-78
2024/01/30 09:02:16;;;;;;;1.05;0.88;;;;;;;;;;5077649;28;20023;-77
2024/01/30 09:04:42;;;;;;;0.63;0.57;;;;;;;;;;5076533;28;20020;-77
2024/01/30 09:07:09;;;;;;;0.85;0.60;;;;;;;;;;5075666;28;20095;-77
2024/01/30 09:09:36;;;;;;;0.68;0.50;;;;;;;;;;5082578;28;20024;-78
2024/01/30 09:12:06;;;;;;;0.73;0.70;;;;;;;;;;5085596;28;20032;-75
2024/01/30 09:14:32;;;;;;;0.75;0.50;;;;;;;;;;5074611;28;20445;-77
2024/01/30 09:16:59;;;;;;;0.50;0.50;;;;;;;;;;5069557;28;20021;-75
2024/01/30 09:19:25;;;;;;;0.32;0.30;;;;;;;;;;5076098;28;20021;-78
2024/01/30 09:21:51;;;;;;;0.68;0.60;;;;;;;;;;5067359;28;20025;-78
2024/01/30 09:24:17;;;;;;;0.70;0.60;;;;;;;;;;5075386;28;20032;-77
2024/01/30 09:26:43;;;;;;;0.65;0.60;;;;;;;;;;5085648;28;20037;-77
2024/01/30 09:29:09;;;;;;;0.40;0.38;;;;;;;;;;5081142;28;20036;-78
2024/01/30 09:31:35;;;;;;;0.70;0.70;;;;;;;;;;5078455;28;20036;-78
2024/01/30 09:34:01;;;;;;;1.25;0.50;;;;;;;;;;5087436;28;20032;-77
2024/01/30 09:36:27;;;;;;;0.70;0.57;;;;;;;;;;5079613;28;20025;-77
2024/01/30 09:38:53;;;;;;;0.40;0.40;;;;;;;;;;5078491;28;20028;-78
2024/01/30 09:41:20;;;;;;;0.43;0.40;;;;;;;;;;5078245;28;20020;-78
2024/01/30 09:43:49;;;;;;;0.50;0.50;;;;;;;;;;5080037;28;20093;-77
2024/01/30 09:46:17;;;;;;;0.55;0.55;;;;;;;;;;5077454;28;20094;-77
2024/01/30 09:48:43;;;;;;;0.70;0.60;;;;;;;;;;5073912;28;20030;-77
2024/01/30 09:51:10;;;;;;;0.40;0.40;;;;;;;;;;5076603;28;20059;-78
2024/01/30 09:53:37;;;;;;;0.57;0.57;;;;;;;;;;5078227;28;20490;-77
2024/01/30 09:56:03;;;;;;;0.50;0.50;;;;;;;;;;5068725;28;20033;-78
2024/01/30 09:58:29;;;;;;;0.50;0.40;;;;;;;;;;5067578;28;20531;-77
2024/01/30 10:00:55;;;;;;;0.43;0.43;;;;;;;;;;5074837;28;20024;-77
2024/01/30 10:03:21;;;;;;;1.25;0.47;;;;;;;;;;5074797;28;20369;-77
2024/01/30 10:05:53;;;;;;;0.38;0.38;;;;;;;;;;5075051;28;20388;-77
2024/01/30 10:08:19;;;;;;;0.40;0.40;;;;;;;;;;5075084;28;20030;-78
2024/01/30 10:10:46;;;;;;;0.35;0.35;;;;;;;;;;5074459;28;20060;-77
2024/01/30 10:13:12;;;;;;;0.68;0.57;;;;;;;;;;5086580;28;20434;-79
2024/01/30 10:15:40;;;;;;;0.45;0.45;;;;;;;;;;5075899;28;20024;-78
2024/01/30 10:18:07;;;;;;;0.90;0.70;;;;;;;;;;5073630;28;20040;-78
2024/01/30 10:20:33;;;;;;;1.70;1.13;;;;;;;;;;5075366;28;20479;-77
2024/01/30 10:22:59;;;;;;;3.20;0.90;;;;;;;;;;5073361;28;20028;-78
2024/01/30 10:25:26;;;;;;;2.45;1.30;;;;;;;;;;5078217;28;20046;-78
2024/01/30 10:27:55;;;;;;;3.60;1.02;;;;;;;;;;5074766;28;20029;-78
2024/01/30 10:30:22;;;;;;;1.98;1.30;;;;;;;;;;5077873;28;20037;-76
2024/01/30 10:32:48;;;;;;;2.65;1.50;;;;;;;;;;5075757;28;20024;-76
2024/01/30 10:35:14;;;;;;;4.18;1.80;;;;;;;;;;5074441;28;20483;-79
2024/01/30 10:37:40;;;;;;;1.33;1.23;;;;;;;;;;5075286;28;20058;-78
2024/01/30 10:40:08;;;;;;;1.52;1.23;;;;;;;;;;5075384;28;20073;-77
2024/01/30 10:42:37;;;;;;;2.65;1.38;;;;;;;;;;5079276;28;20029;-78
2024/01/30 10:45:08;;;;;;;2.17;1.50;;;;;;;;;;5072643;28;20055;-78
2024/01/30 10:47:35;;;;;;;1.77;1.25;;;;;;;;;;5076757;28;20103;-79
2024/01/30 10:50:03;;;;;;;1.83;1.52;;;;;;;;;;5077123;28;20024;-78
2024/01/30 10:52:29;;;;;;;1.65;1.20;;;;;;;;;;5062634;28;20025;-78
2024/01/30 10:54:56;;;;;;;2.28;1.30;;;;;;;;;;5074733;28;20025;-78
2024/01/30 10:57:26;;;;;;;1.15;1.08;;;;;;;;;;5076388;28;20028;-77
2024/01/30 10:59:53;;;;;;;3.33;1.25;;;;;;;;;;5073790;28;20099;-79
2024/01/30 11:02:20;;;;;;;1.20;1.10;;;;;;;;;;5073792;28;20021;-77
2024/01/30 11:04:47;;;;;;;2.40;1.60;;;;;;;;;;5077698;28;20091;-77
2024/01/30 11:07:24;;;;;;;2.72;1.45;;;;;;;;;;5081422;28;20379;-78
2024/01/30 11:09:52;;;;;;;1.85;1.45;;;;;;;;;;5075101;28;20083;-77
2024/01/30 11:12:25;;;;;;;2.97;1.33;;;;;;;;;;5072305;28;20036;-77
2024/01/30 11:15:05;;;;;;;2.28;1.30;;;;;;;;;;5078017;28;20035;-77
2024/01/30 11:17:44;;;;;;;3.05;1.52;;;;;;;;;;5084692;28;20028;-78
2024/01/30 11:20:14;;;;;;;1.65;1.45;;;;;;;;;;5090755;27;20037;-78
2024/01/30 11:22:41;;;;;;;2.05;1.42;;;;;;;;;;5095117;27;20058;-78
2024/01/30 11:25:11;;;;;;;2.65;1.70;;;;;;;;;;5095962;28;20084;-77
2024/01/30 11:27:38;;;;;;;3.33;1.92;;;;;;;;;;5080747;28;20028;-77
2024/01/30 11:30:04;;;;;;;2.28;1.65;;;;;;;;;;5076008;28;20032;-77
2024/01/30 11:32:31;;;;;;;2.60;1.40;;;;;;;;;;5077306;28;20036;-78
2024/01/30 11:34:57;;;;;;;1.70;1.30;;;;;;;;;;5079316;28;20025;-78
2024/01/30 11:37:26;;;;;;;2.00;1.35;;;;;;;;;;5078450;28;20510;-78
2024/01/30 11:39:54;;;;;;;2.33;1.70;;;;;;;;;;5076281;28;20056;-78
2024/01/30 11:42:20;;;;;;;0.90;0.75;;;;;;;;;;5082603;28;20032;-77
2024/01/30 11:44:49;;;;;;;2.38;1.60;;;;;;;;;;5067435;28;20078;-78
2024/01/30 11:47:15;;;;;;;1.77;0.93;;;;;;;;;;5070898;28;20108;-76
2024/01/30 11:49:41;;;;;;;2.78;1.45;;;;;;;;;;5076181;28;20032;-77
2024/01/30 11:52:07;;;;;;;3.47;1.38;;;;;;;;;;5073676;28;20476;-78
2024/01/30 11:54:33;;;;;;;3.10;1.50;;;;;;;;;;5073205;28;20373;-78
2024/01/30 11:57:00;;;;;;;2.63;1.45;;;;;;;;;;5075391;28;20506;-78
2024/01/30 11:59:26;;;;;;;1.88;1.30;;;;;;;;;;5079391;28;20043;-77
2024/01/30 12:01:52;;;;;;;1.42;1.20;;;;;;;;;;5082460;28;20391;-77
2024/01/30 12:04:18;;;;;;;1.42;1.30;;;;;;;;;;5080698;28;20032;-77
2024/01/30 12:06:45;;;;;;;2.65;1.33;;;;;;;;;;5082911;28;20025;-77
2024/01/30 12:09:13;;;;;;;1.42;1.10;;;;;;;;;;5079931;28;20036;-77
2024/01/30 12:11:45;;;;;;;1.95;1.23;;;;;;;;;;5084102;28;20095;-76
2024/01/30 12:14:12;;;;;;;0.95;0.90;;;;;;;;;;5089185;28;20035;-76
2024/01/30 12:16:38;;;;;;;1.30;0.77;;;;;;;;;;5087370;28;20448;-76
2024/01/30 12:19:04;;;;;;;1.08;1.00;;;;;;;;;;5081216;28;20047;-78
2024/01/30 12:21:30;;;;;;;1.23;1.00;;;;;;;;;;5073560;28;20036;-77
2024/01/30 12:24:00;;;;;;;1.50;0.95;;;;;;;;;;5094145;28;20020;-76
2024/01/30 12:26:26;;;;;;;1.77;1.00;;;;;;;;;;5074299;28;20091;-77
2024/01/30 12:28:55;;;;;;;0.93;0.82;;;;;;;;;;5080304;28;20341;-77
2024/01/30 12:31:32;;;;;;;1.02;0.98;;;;;;;;;;5078227;28;20020;-78
2024/01/30 12:34:00;;;;;;;0.80;0.77;;;;;;;;;;5078175;28;20036;-76
2024/01/30 12:36:26;;;;;;;0.85;0.85;;;;;;;;;;5078738;28;20189;-77
2024/01/30 12:38:52;;;;;;;0.80;0.77;;;;;;;;;;5077701;28;20029;-77
2024/01/30 12:41:20;;;;;;;0.77;0.52;;;;;;;;;;5077944;28;20280;-77
2024/01/30 12:43:47;;;;;;;1.35;0.90;;;;;;;;;;5071201;28;20028;-77
2024/01/30 12:46:13;;;;;;;1.25;0.93;;;;;;;;;;5077688;28;20070;-78
2024/01/30 12:48:39;;;;;;;1.02;0.88;;;;;;;;;;5076389;28;20029;-77
2024/01/30 12:51:05;;;;;;;1.08;0.98;;;;;;;;;;5076282;28;20396;-77
2024/01/30 12:53:32;;;;;;;1.15;0.85;;;;;;;;;;5075827;28;20032;-77
2024/01/30 12:55:58;;;;;;;1.15;1.05;;;;;;;;;;5077621;28;20036;-77
2024/01/30 12:58:24;;;;;;;1.30;1.00;;;;;;;;;;5080922;28;20074;-77
2024/01/30 13:00:50;;;;;;;1.40;0.93;;;;;;;;;;5080233;28;20040;-78
2024/01/30 13:03:17;;;;;;;1.65;1.25;;;;;;;;;;5094057;28;20055;-78
2024/01/30 13:05:43;;;;;;;1.13;1.02;;;;;;;;;;5095972;28;20040;-78
2024/01/30 13:08:09;;;;;;;2.00;0.90;;;;;;;;;;5086992;28;20017;-77
2024/01/30 13:10:35;;;;;;;1.02;1.02;;;;;;;;;;5095518;28;20054;-78
2024/01/30 13:13:02;;;;;;;0.95;0.73;;;;;;;;;;5098871;28;20033;-77
2024/01/30 13:15:28;;;;;;;1.05;1.00;;;;;;;;;;5085077;28;20016;-78
2024/01/30 13:17:54;;;;;;;0.98;0.80;;;;;;;;;;5085353;28;20025;-77
2024/01/30 13:20:20;;;;;;;0.55;0.55;;;;;;;;;;5084901;28;20023;-77
2024/01/30 13:22:50;;;;;;;2.63;1.00;;;;;;;;;;5075626;28;20052;-77
2024/01/30 13:25:16;;;;;;;0.80;0.80;;;;;;;;;;5071530;28;20034;-78
2024/01/30 13:27:43;;;;;;;1.98;1.20;;;;;;;;;;5079691;28;20047;-77
2024/01/30 13:30:09;;;;;;;1.02;0.90;;;;;;;;;;5077019;28;20086;-79
2024/01/30 13:32:35;;;;;;;0.82;0.63;;;;;;;;;;5083757;28;20025;-78
2024/01/30 13:35:02;;;;;;;0.63;0.63;;;;;;;;;;5078651;28;20096;-77
2024/01/30 13:37:28;;;;;;;1.65;0.98;;;;;;;;;;5069724;28;20017;-78
2024/01/30 13:39:54;;;;;;;1.10;1.00;;;;;;;;;;5075799;28;20430;-78
2024/01/30 13:42:20;;;;;;;0.75;0.75;;;;;;;;;;5079601;28;20027;-78
2024/01/30 13:44:46;;;;;;;2.30;1.30;;;;;;;;;;5094441;28;20035;-79
2024/01/30 13:47:12;;;;;;;1.52;1.30;;;;;;;;;;5077315;28;20075;-78
2024/01/30 13:49:38;;;;;;;1.92;1.10;;;;;;;;;;5079489;28;20021;-77
2024/01/30 13:52:05;;;;;;;2.97;1.25;;;;;;;;;;5075562;28;20046;-78
2024/01/30 13:54:34;;;;;;;2.22;1.20;;;;;;;;;;5074137;28;20059;-78
2024/01/30 13:57:00;;;;;;;2.10;1.40;;;;;;;;;;5076062;28;20020;-78
2024/01/30 13:59:26;;;;;;;2.17;1.10;;;;;;;;;;5075322;28;20450;-78
2024/01/30 14:01:52;;;;;;;1.85;0.90;;;;;;;;;;5081930;28;20020;-77
2024/01/30 14:04:18;;;;;;;2.35;1.10;;;;;;;;;;5073016;28;20044;-77
2024/01/30 14:06:45;;;;;;;1.27;0.90;;;;;;;;;;5094617;28;20024;-77
2024/01/30 14:09:11;;;;;;;2.15;1.38;;;;;;;;;;5078289;28;20229;-77
2024/01/30 14:11:37;;;;;;;3.83;1.75;;;;;;;;;;5078856;28;20035;-77
2024/01/30 14:14:03;;;;;;;3.83;1.05;;;;;;;;;;5091211;28;20032;-78
2024/01/30 14:16:29;;;;;;;0.85;0.85;;;;;;;;;;5082904;28;20058;-78
2024/01/30 14:18:55;;;;;;;1.80;1.05;;;;;;;;;;5074779;28;20032;-78
2024/01/30 14:21:21;;;;;;;10.77;1.85;;;;;;;;;;5075617;28;20119;-77
2024/01/30 14:23:47;;;;;;;4.55;1.73;;;;;;;;;;5074485;28;20028;-77
2024/01/30 14:26:13;;;;;;;1.98;1.40;;;;;;;;;;5075698;28;20048;-79
2024/01/30 14:28:40;;;;;;;3.65;1.30;;;;;;;;;;5075026;28;20036;-76
2024/01/30 14:31:06;;;;;;;4.85;1.60;;;;;;;;;;5078560;28;20363;-78
2024/01/30 14:33:32;;;;;;;3.80;1.38;;;;;;;;;;5079485;28;20052;-78
2024/01/30 14:35:58;;;;;;;3.22;1.30;;;;;;;;;;5074200;28;20020;-77
2024/01/30 14:38:28;;;;;;;2.72;1.40;;;;;;;;;;5074095;28;20102;-77